Greensboro, NC

5:59 AM EDT on May 27, 2015 (GMT -0400)
Westerwood | | Change Station
CLOSE
Current Station
Personal Weather Station
Location: Greensboro, NC
Elevation: 779 ft
Nearby Weather Stations

Elev 779 ft 36.08 °N, 79.81 °W | Updated 10 seconds ago

Partly Cloudy
Partly Cloudy
66.1 °F
Feels Like 66.1 °F
N
0.0
Wind Variable Wind from ESE

Today
High -- | Low -- °F
--% Chance of Precip.
Yesterday
High -- | Low -- °F
Precip. -- in
6:05 AM 8:27 PM
Waxing Gibbous, 66% visible
Pressure 30.17 in
Visibility 10.0 miles
Clouds Scattered Clouds 300 ft
Mostly Cloudy 18000 ft
Dew Point 65 °F
Humidity 95%
Rainfall 0.07 in
Snow Depth Not available.
UV 0 out of 12
Pollen 7.50 out of 12
Air Quality Not available.
Flu Activity No Activity
METAR KGSO 270954Z 18006KT 10SM SCT003 BKN180 18/18 A3020 RMK AO2 SLP217 T01830178

More Conditions Fewer Conditions

Pressure 30.17 in
Visibility 10.0 miles
Clouds Scattered Clouds 300 ft
Mostly Cloudy 18000 ft
Dew Point 65 °F
Humidity 95%
Rainfall 0.07 in
Snow Depth Not available.
UV 0 out of 12
Pollen 7.50 out of 12
Air Quality Not available.
Flu Activity No Activity
METAR KGSO 270954Z 18006KT 10SM SCT003 BKN180 18/18 A3020 RMK AO2 SLP217 T01830178

More Conditions Fewer Conditions

10-Day Weather Forecast

Almanac

Astronomy

May. 27, 2015 Rise Set
Actual Time
Civil Twilight
Nautical Twilight
Astronomical Twilight
Moon
Length of Visible Light
Length of Day
Tomorrow will be .
, % of the Moon is Illuminated

Today's Extremes

State Highs State Lows

Community

WunderPhotos

Upload Photos

1,824,635 photos uploaded!

WunderBlogs® & News

Nearby

Air Quality

  Air Quality AQ Index Pollutant
Not available.

Snow Depth

Station Depth Elevation

Earthquake Activity

City Distance Mag. Time & Date
Minimum magnitude displayed is 2.5.

Coastal Water Temperatures

Place Temperature

Stations

Nearby Weather Stations

Station Location Temp. Windchill Dew Point Humidity Wind Precip. Elev Updated Type